Terminal Aerodrome Forecast
Issued by NWS Bismarck, ND

Home | Current Version | Previous Version | Text Only | Print | Product List | Glossary On
Versions: 1 2 3 4 5 6 7 8 9 10 11 12 13 14 15 16 17 18 19
938
FTUS43 KBIS 241136
TAFBIS
TAF
KBIS 241136Z 2412/2512 04014KT 6SM -RA BR OVC005
     FM241400 03009KT 3SM BR VCSH OVC003
     FM241700 36010KT P6SM OVC008
     FM241900 36010KT P6SM OVC015
     FM250200 01010KT P6SM OVC008
     FM250600 01009KT P6SM OVC003=

USA.gov is the U.S. government's official web portal to all federal, state and local government web resources and services.